Time;durP1;ratioP1;P1;durP2;ratioP2;P2;SDS_P1;SDS_P2;PMS_P1;PMS_P2;Temp;Humidity;BMP_temperature;BMP_pressure;BME280_temperature;BME280_humidity;BME280_pressure;Samples;Min_cycle;Max_cycle;Signal;HPM_P1;HPM_P2
2020/12/09 00:01:16;;;;;;;22.50;11.33;;;2.40;99.90;;;;;;5093038;28;20239;-65
2020/12/09 00:03:43;;;;;;;23.43;11.80;;;2.50;99.90;;;;;;5092951;28;20287;-67
2020/12/09 00:06:09;;;;;;;21.10;11.67;;;2.50;99.90;;;;;;5093197;28;20229;-64
2020/12/09 00:08:36;;;;;;;21.60;11.77;;;2.50;99.90;;;;;;5093017;28;20222;-62
2020/12/09 00:11:03;;;;;;;23.03;11.47;;;2.50;99.90;;;;;;5093497;28;20182;-65
2020/12/09 00:13:30;;;;;;;22.23;12.00;;;2.50;99.90;;;;;;5093997;28;20225;-65
2020/12/09 00:15:57;;;;;;;23.03;12.47;;;2.50;99.90;;;;;;5092981;28;20233;-63
2020/12/09 00:18:24;;;;;;;21.77;12.00;;;2.50;99.90;;;;;;5093319;28;20553;-64
2020/12/09 00:20:50;;;;;;;23.47;12.43;;;2.50;99.90;;;;;;5092949;28;20213;-67
2020/12/09 00:23:17;;;;;;;21.93;12.47;;;2.50;99.90;;;;;;5092287;28;20249;-67
2020/12/09 00:25:43;;;;;;;26.17;12.53;;;2.50;99.90;;;;;;5092467;28;20270;-64
2020/12/09 00:28:10;;;;;;;21.30;11.17;;;2.50;99.90;;;;;;5092377;28;20684;-62
2020/12/09 00:30:36;;;;;;;23.80;12.43;;;2.50;99.90;;;;;;5092414;28;20186;-64
2020/12/09 00:33:04;;;;;;;27.60;13.23;;;2.50;99.90;;;;;;5092923;28;20234;-64
2020/12/09 00:35:30;;;;;;;23.60;12.27;;;2.50;99.90;;;;;;5092445;28;20236;-64
2020/12/09 00:37:57;;;;;;;24.53;12.57;;;2.60;99.90;;;;;;5092535;28;20263;-66
2020/12/09 00:40:23;;;;;;;22.37;11.70;;;2.60;99.90;;;;;;5092645;28;20213;-65
2020/12/09 00:42:49;;;;;;;28.63;13.33;;;2.60;99.90;;;;;;5092514;28;20737;-68
2020/12/09 00:45:16;;;;;;;21.50;13.33;;;2.60;99.90;;;;;;5071729;28;20276;-63
2020/12/09 00:47:43;;;;;;;23.33;12.70;;;2.60;99.90;;;;;;5071980;28;20232;-65
2020/12/09 00:50:28;;;;;;;20.83;12.37;;;2.60;99.90;;;;;;5072232;28;20215;-65
2020/12/09 00:52:55;;;;;;;24.77;13.13;;;2.60;99.90;;;;;;5089016;28;20226;-65
2020/12/09 00:55:22;;;;;;;23.17;12.17;;;2.60;99.90;;;;;;5091988;28;20229;-65
2020/12/09 00:57:49;;;;;;;25.50;13.23;;;2.60;99.90;;;;;;5092271;28;20243;-64
2020/12/09 01:00:16;;;;;;;21.83;12.07;;;2.70;99.90;;;;;;5091685;28;20617;-65
2020/12/09 01:02:42;;;;;;;24.70;12.10;;;2.60;99.90;;;;;;5092253;28;20197;-64
2020/12/09 01:05:11;;;;;;;24.47;12.87;;;2.70;99.90;;;;;;5091818;28;20685;-64
2020/12/09 01:07:38;;;;;;;24.07;12.87;;;2.70;99.90;;;;;;5092527;28;20540;-67
2020/12/09 01:10:05;;;;;;;27.17;13.23;;;2.70;99.90;;;;;;5090765;28;20185;-64
2020/12/09 01:12:32;;;;;;;23.30;12.23;;;2.80;99.90;;;;;;5092062;28;20570;-65
2020/12/09 01:14:58;;;;;;;25.07;13.33;;;2.70;99.90;;;;;;5092067;28;20278;-65
2020/12/09 01:17:25;;;;;;;23.37;12.63;;;2.80;99.90;;;;;;5091998;28;20309;-67
2020/12/09 01:19:51;;;;;;;22.20;12.57;;;2.80;99.90;;;;;;5091605;28;20662;-64
2020/12/09 01:22:18;;;;;;;25.73;12.37;;;2.80;99.90;;;;;;5091711;28;20218;-66
2020/12/09 01:24:45;;;;;;;24.07;12.43;;;2.80;99.90;;;;;;5091567;28;20253;-63
2020/12/09 01:27:11;;;;;;;22.57;12.13;;;2.80;99.90;;;;;;5091798;28;20248;-63
2020/12/09 01:29:38;;;;;;;23.23;12.70;;;2.80;99.90;;;;;;5091381;28;20680;-67
2020/12/09 01:32:04;;;;;;;26.80;11.60;;;2.70;99.90;;;;;;5091381;28;20187;-64
2020/12/09 01:34:31;;;;;;;21.43;11.37;;;2.80;99.90;;;;;;5091502;28;20199;-67
2020/12/09 01:37:00;;;;;;;21.73;10.93;;;2.80;99.90;;;;;;5091681;28;20218;-64
2020/12/09 01:39:27;;;;;;;21.70;11.93;;;2.90;99.90;;;;;;5091629;28;20222;-65
2020/12/09 01:41:54;;;;;;;20.23;11.23;;;2.80;99.90;;;;;;5091897;28;20201;-67
2020/12/09 01:44:20;;;;;;;21.67;10.90;;;2.80;99.90;;;;;;5091412;28;20246;-64
2020/12/09 01:46:49;;;;;;;20.53;11.80;;;2.80;99.90;;;;;;5091862;28;20198;-65
2020/12/09 01:49:15;;;;;;;21.00;10.77;;;2.80;99.90;;;;;;5091714;28;20241;-65
2020/12/09 01:51:42;;;;;;;18.80;11.17;;;2.80;99.90;;;;;;5091348;28;20233;-63
2020/12/09 01:54:09;;;;;;;19.43;10.57;;;2.80;99.90;;;;;;5091298;28;20194;-67
2020/12/09 01:56:36;;;;;;;23.77;11.00;;;2.80;99.90;;;;;;5091296;28;20636;-66
2020/12/09 01:59:03;;;;;;;19.93;10.27;;;2.80;99.90;;;;;;5091489;28;20691;-67
2020/12/09 02:01:31;;;;;;;22.33;10.97;;;2.80;99.90;;;;;;5091122;28;20198;-65
2020/12/09 02:03:58;;;;;;;20.63;10.67;;;2.90;99.90;;;;;;5091526;28;20253;-66
2020/12/09 02:06:24;;;;;;;17.27;9.83;;;2.90;99.90;;;;;;5091668;28;20186;-62
2020/12/09 02:08:51;;;;;;;19.23;9.87;;;2.90;99.90;;;;;;5091885;28;20198;-66
2020/12/09 02:11:17;;;;;;;18.60;10.20;;;2.90;99.90;;;;;;5091809;28;20216;-63
2020/12/09 02:13:46;;;;;;;18.23;9.93;;;2.80;99.90;;;;;;5091178;28;20245;-63
2020/12/09 02:16:13;;;;;;;20.83;9.90;;;2.90;99.90;;;;;;5091283;28;20224;-64
2020/12/09 02:18:41;;;;;;;18.47;9.73;;;2.90;99.90;;;;;;5091574;28;20198;-65
2020/12/09 02:21:08;;;;;;;16.23;9.37;;;2.90;99.90;;;;;;5093720;28;20182;-63
2020/12/09 02:23:36;;;;;;;18.17;9.60;;;3.00;99.90;;;;;;5095043;28;20295;-63
2020/12/09 02:26:03;;;;;;;19.97;10.23;;;2.90;99.90;;;;;;5095404;28;20230;-66
2020/12/09 02:28:29;;;;;;;17.97;9.83;;;3.00;99.90;;;;;;5094956;28;20194;-64
2020/12/09 02:30:56;;;;;;;20.40;10.97;;;3.00;99.90;;;;;;5094760;28;20225;-62
2020/12/09 02:33:22;;;;;;;18.20;10.10;;;3.00;99.90;;;;;;5094658;28;20198;-67
2020/12/09 02:35:48;;;;;;;19.37;10.30;;;3.00;99.90;;;;;;5094405;28;20672;-65
2020/12/09 02:38:15;;;;;;;18.57;10.47;;;3.00;99.90;;;;;;5094465;28;20291;-63
2020/12/09 02:40:42;;;;;;;19.00;10.37;;;3.00;99.90;;;;;;5093885;28;20615;-64
2020/12/09 02:43:09;;;;;;;18.80;11.00;;;3.00;99.90;;;;;;5094601;28;20602;-65
2020/12/09 02:45:35;;;;;;;20.10;11.57;;;3.00;99.90;;;;;;5094128;28;20581;-66
2020/12/09 02:48:02;;;;;;;19.70;10.80;;;3.00;99.90;;;;;;5094097;28;20224;-66
2020/12/09 02:50:28;;;;;;;21.70;10.80;;;2.90;99.90;;;;;;5093988;28;20226;-64
2020/12/09 02:52:55;;;;;;;22.43;11.77;;;2.90;99.90;;;;;;5094450;28;20198;-66
2020/12/09 02:55:21;;;;;;;24.10;12.23;;;2.90;99.90;;;;;;5093708;28;20233;-65
2020/12/09 02:57:49;;;;;;;22.77;12.00;;;2.90;99.90;;;;;;5093758;28;20250;-64
2020/12/09 03:00:16;;;;;;;22.07;11.50;;;2.90;99.90;;;;;;5094392;28;20179;-66
2020/12/09 03:02:42;;;;;;;21.03;11.53;;;2.90;99.90;;;;;;5093590;28;20248;-65
2020/12/09 03:05:09;;;;;;;24.53;12.53;;;2.90;99.90;;;;;;5093957;28;20250;-65
2020/12/09 03:07:36;;;;;;;23.03;12.00;;;2.90;99.90;;;;;;5094184;28;20251;-68
2020/12/09 03:10:04;;;;;;;25.07;12.80;;;2.90;99.90;;;;;;5094516;28;20205;-65
2020/12/09 03:12:30;;;;;;;24.07;12.40;;;2.90;99.90;;;;;;5094017;28;20217;-65
2020/12/09 03:14:57;;;;;;;22.33;12.20;;;2.80;99.90;;;;;;5093629;28;20217;-63
2020/12/09 03:17:24;;;;;;;22.47;13.03;;;2.80;99.90;;;;;;5094071;28;20190;-64
2020/12/09 03:19:50;;;;;;;25.43;13.07;;;2.80;99.90;;;;;;5093906;28;20233;-65
2020/12/09 03:22:17;;;;;;;27.77;13.43;;;2.80;99.90;;;;;;5093908;28;20213;-65
2020/12/09 03:24:43;;;;;;;23.63;12.83;;;2.80;99.90;;;;;;5093523;28;20242;-64
2020/12/09 03:27:10;;;;;;;25.53;12.87;;;2.90;99.90;;;;;;5093808;28;20230;-65
2020/12/09 03:29:36;;;;;;;23.17;12.50;;;2.80;99.90;;;;;;5094199;28;20198;-66
2020/12/09 03:32:03;;;;;;;21.23;12.03;;;2.80;99.90;;;;;;5092567;28;20269;-66
2020/12/09 03:34:30;;;;;;;25.37;13.37;;;2.80;99.90;;;;;;5093513;28;20237;-66
2020/12/09 03:36:56;;;;;;;24.33;12.70;;;2.80;99.90;;;;;;5093824;28;20248;-65
2020/12/09 03:39:23;;;;;;;23.37;12.70;;;2.80;99.90;;;;;;5093376;28;20269;-65
2020/12/09 03:41:49;;;;;;;26.13;13.27;;;2.80;99.90;;;;;;5093350;28;20194;-66
2020/12/09 03:44:15;;;;;;;27.00;13.60;;;2.70;99.90;;;;;;5092837;28;20300;-66
2020/12/09 03:46:42;;;;;;;27.97;12.93;;;2.80;99.90;;;;;;5093000;28;20259;-67
2020/12/09 03:49:10;;;;;;;24.83;13.67;;;2.80;99.90;;;;;;5093108;28;20190;-64
2020/12/09 03:51:36;;;;;;;24.93;12.80;;;2.80;99.90;;;;;;5092791;28;20199;-63
2020/12/09 03:54:03;;;;;;;22.93;12.47;;;2.80;99.90;;;;;;5092545;28;20595;-67
2020/12/09 03:56:30;;;;;;;23.20;12.17;;;2.80;99.90;;;;;;5093372;28;20194;-64
2020/12/09 03:58:56;;;;;;;22.13;11.77;;;2.80;99.90;;;;;;5092650;28;20204;-64
2020/12/09 04:01:23;;;;;;;21.97;11.90;;;2.80;99.90;;;;;;5092696;28;20556;-67
2020/12/09 04:03:49;;;;;;;21.57;12.47;;;2.80;99.90;;;;;;5092439;28;20279;-65
2020/12/09 04:06:16;;;;;;;26.00;12.30;;;2.70;99.90;;;;;;5092800;28;20649;-65
2020/12/09 04:08:43;;;;;;;28.30;12.33;;;2.80;99.90;;;;;;5092736;28;20198;-63
2020/12/09 04:11:10;;;;;;;22.27;11.97;;;2.80;99.90;;;;;;5092988;28;20562;-65
2020/12/09 04:13:36;;;;;;;22.80;11.90;;;2.80;99.90;;;;;;5092330;28;20244;-64
2020/12/09 04:16:02;;;;;;;22.53;12.03;;;2.70;99.90;;;;;;5092756;28;20219;-66
2020/12/09 04:18:29;;;;;;;24.83;12.00;;;2.80;99.90;;;;;;5092388;28;20505;-66
2020/12/09 04:20:55;;;;;;;19.93;11.53;;;2.80;99.90;;;;;;5092515;28;20251;-65
2020/12/09 04:23:23;;;;;;;21.93;11.77;;;2.70;99.90;;;;;;5092266;28;20240;-67
2020/12/09 04:25:49;;;;;;;27.10;11.73;;;2.80;99.90;;;;;;5092052;28;20222;-64
2020/12/09 04:28:17;;;;;;;21.57;10.57;;;2.70;99.90;;;;;;5092235;28;20556;-65
2020/12/09 04:30:43;;;;;;;22.73;11.17;;;2.70;99.90;;;;;;5091890;28;20281;-64
2020/12/09 04:33:10;;;;;;;19.37;10.70;;;2.60;99.90;;;;;;5092669;28;20190;-62
2020/12/09 04:35:36;;;;;;;22.43;10.40;;;2.70;99.90;;;;;;5092576;28;20621;-66
2020/12/09 04:38:02;;;;;;;19.37;10.90;;;2.70;99.90;;;;;;5092056;28;20229;-67
2020/12/09 04:40:30;;;;;;;18.47;10.27;;;2.70;99.90;;;;;;5092078;28;20214;-64
2020/12/09 04:42:58;;;;;;;18.30;10.00;;;2.70;99.90;;;;;;5092370;28;20229;-67
2020/12/09 04:45:25;;;;;;;20.30;9.80;;;2.70;99.90;;;;;;5092417;28;20218;-65
2020/12/09 04:48:06;;;;;;;18.60;10.40;;;2.70;99.90;;;;;;5092475;28;20255;-66
2020/12/09 04:50:37;;;;;;;17.73;10.03;;;2.70;99.90;;;;;;5092210;28;20274;-62
2020/12/09 04:53:11;;;;;;;20.07;9.70;;;2.70;99.90;;;;;;5092231;28;20240;-64
2020/12/09 04:55:50;;;;;;;17.23;9.80;;;2.60;99.90;;;;;;5092149;28;20187;-65
2020/12/09 04:58:20;;;;;;;19.80;10.00;;;2.70;99.90;;;;;;5091952;28;20182;-66
2020/12/09 05:00:48;;;;;;;19.70;10.27;;;2.70;99.90;;;;;;5091343;28;20233;-64
2020/12/09 05:03:16;;;;;;;16.10;9.23;;;2.70;99.90;;;;;;5092336;28;20562;-66
2020/12/09 05:05:43;;;;;;;17.13;10.33;;;2.60;99.90;;;;;;5092050;28;20254;-65
2020/12/09 05:08:23;;;;;;;19.73;10.10;;;2.60;99.90;;;;;;5091990;28;20323;-65
2020/12/09 05:10:51;;;;;;;15.27;9.23;;;2.60;99.90;;;;;;5092437;28;20265;-66
2020/12/09 05:13:24;;;;;;;20.53;10.10;;;2.60;99.90;;;;;;5092425;28;20256;-64
2020/12/09 05:15:57;;;;;;;16.17;9.43;;;2.60;99.90;;;;;;5091333;28;20340;-65
2020/12/09 05:18:39;;;;;;;17.60;9.33;;;2.70;99.90;;;;;;5091468;28;20241;-63
2020/12/09 05:21:26;;;;;;;16.63;8.60;;;2.70;99.90;;;;;;5091462;28;20269;-65
2020/12/09 05:23:54;;;;;;;18.00;9.07;;;2.70;99.90;;;;;;5088149;28;20233;-64
2020/12/09 05:26:24;;;;;;;15.97;8.97;;;2.70;99.90;;;;;;5091826;28;20225;-64
2020/12/09 05:29:05;;;;;;;17.00;8.83;;;2.70;99.90;;;;;;5091502;28;20229;-65
2020/12/09 05:31:31;;;;;;;14.33;8.77;;;2.60;99.90;;;;;;5091685;28;20228;-64
2020/12/09 05:33:58;;;;;;;16.93;9.03;;;2.70;99.90;;;;;;5091687;28;20244;-64
2020/12/09 05:36:26;;;;;;;18.87;9.17;;;2.70;99.90;;;;;;5091306;28;20237;-64
2020/12/09 05:39:04;;;;;;;15.50;8.93;;;2.70;99.90;;;;;;5091280;28;20261;-65
2020/12/09 05:41:33;;;;;;;15.70;8.77;;;2.70;99.90;;;;;;5091310;28;20255;-65
2020/12/09 05:44:03;;;;;;;17.50;8.93;;;2.60;99.90;;;;;;5090700;28;20245;-65
2020/12/09 05:46:30;;;;;;;19.87;9.50;;;2.60;99.90;;;;;;5091609;28;20583;-65
2020/12/09 05:48:57;;;;;;;16.97;9.33;;;2.60;99.90;;;;;;5091482;28;20604;-64
2020/12/09 05:51:24;;;;;;;16.60;9.23;;;2.60;99.90;;;;;;5091918;28;20182;-62
2020/12/09 05:53:51;;;;;;;17.97;9.23;;;2.60;99.90;;;;;;5092122;28;20244;-66
2020/12/09 05:56:21;;;;;;;15.47;8.90;;;2.70;99.90;;;;;;5094602;28;20226;-64
2020/12/09 05:58:49;;;;;;;16.30;9.03;;;2.70;99.90;;;;;;5095425;28;20194;-65
2020/12/09 06:01:18;;;;;;;16.97;8.90;;;2.70;99.90;;;;;;5095713;28;20592;-65
2020/12/09 06:03:46;;;;;;;20.63;8.90;;;2.60;99.90;;;;;;5095105;28;20244;-65
2020/12/09 06:06:18;;;;;;;15.43;8.57;;;2.70;99.90;;;;;;5095011;28;20291;-68
2020/12/09 06:08:47;;;;;;;19.30;9.80;;;2.70;99.90;;;;;;5095244;28;20214;-65
2020/12/09 06:11:15;;;;;;;14.73;9.23;;;2.70;99.90;;;;;;5095165;28;20236;-66
2020/12/09 06:13:43;;;;;;;16.97;9.07;;;2.70;99.90;;;;;;5094541;28;20198;-63
2020/12/09 06:16:12;;;;;;;17.20;8.90;;;2.70;99.90;;;;;;5095174;28;20229;-67
2020/12/09 06:18:42;;;;;;;16.67;9.57;;;2.70;99.90;;;;;;5095007;28;20264;-66
2020/12/09 06:21:08;;;;;;;17.80;9.03;;;2.70;99.90;;;;;;5094626;28;20231;-64
2020/12/09 06:23:35;;;;;;;17.73;10.03;;;2.70;99.90;;;;;;5094753;28;20255;-63
2020/12/09 06:26:03;;;;;;;20.20;9.63;;;2.70;99.90;;;;;;5094415;28;20214;-63
2020/12/09 06:28:31;;;;;;;17.10;9.80;;;2.70;99.90;;;;;;5094975;28;20812;-65
2020/12/09 06:30:59;;;;;;;15.83;9.50;;;2.70;99.90;;;;;;5095169;28;20214;-68
2020/12/09 06:33:37;;;;;;;15.73;8.63;;;2.70;99.90;;;;;;5095164;28;20248;-67
2020/12/09 06:36:15;;;;;;;18.37;9.23;;;2.70;99.90;;;;;;5095246;28;20178;-65
2020/12/09 06:39:02;;;;;;;19.90;10.30;;;2.60;99.90;;;;;;5095489;28;20283;-67
2020/12/09 06:41:29;;;;;;;18.37;8.93;;;2.70;99.90;;;;;;5094611;28;20190;-66
2020/12/09 06:44:03;;;;;;;18.90;9.20;;;2.70;99.90;;;;;;5094288;28;20187;-67
2020/12/09 06:46:38;;;;;;;16.83;8.93;;;2.70;99.90;;;;;;5095207;28;20197;-65
2020/12/09 06:49:26;;;;;;;16.50;9.00;;;2.70;99.90;;;;;;5094540;28;20193;-66
2020/12/09 06:51:52;;;;;;;16.43;8.37;;;2.70;99.90;;;;;;5094425;28;20199;-68
2020/12/09 06:54:18;;;;;;;16.63;8.53;;;2.70;99.90;;;;;;5094379;28;20237;-67
2020/12/09 06:57:05;;;;;;;15.17;8.47;;;2.70;99.90;;;;;;5094295;28;20618;-64
2020/12/09 06:59:31;;;;;;;17.13;8.07;;;2.80;99.90;;;;;;5094112;28;20638;-62
2020/12/09 07:02:03;;;;;;;15.37;8.17;;;2.80;99.90;;;;;;5093883;28;20321;-68
2020/12/09 07:05:05;;;;;;;16.20;8.50;;;2.70;99.90;;;;;;5093770;28;20234;-65
2020/12/09 07:07:34;;;;;;;16.53;8.63;;;2.80;99.90;;;;;;5092787;28;20646;-67
2020/12/09 07:10:02;;;;;;;15.37;8.20;;;2.80;99.90;;;;;;5094158;28;20194;-64
2020/12/09 07:12:28;;;;;;;15.10;8.23;;;2.80;99.90;;;;;;5094022;28;20259;-67
2020/12/09 07:14:56;;;;;;;14.00;8.70;;;2.80;99.90;;;;;;5094043;28;20592;-64
2020/12/09 07:17:25;;;;;;;11.13;6.90;;;2.70;99.90;;;;;;5094073;28;20260;-67
2020/12/09 07:19:52;;;;;;;13.73;7.67;;;2.80;99.90;;;;;;5093812;28;20205;-65
2020/12/09 07:22:19;;;;;;;14.43;7.30;;;2.80;99.90;;;;;;5093956;28;20553;-67
2020/12/09 07:24:46;;;;;;;13.20;7.60;;;2.80;99.90;;;;;;5093759;28;20275;-68
2020/12/09 07:27:13;;;;;;;13.83;7.67;;;2.80;99.90;;;;;;5092991;28;20300;-67
2020/12/09 07:29:40;;;;;;;13.87;7.80;;;2.80;99.90;;;;;;5093672;28;20190;-66
2020/12/09 07:32:07;;;;;;;13.77;7.00;;;2.80;99.90;;;;;;5094156;28;20307;-66
2020/12/09 07:34:34;;;;;;;12.50;7.47;;;2.80;99.90;;;;;;5093989;28;20208;-64
2020/12/09 07:37:01;;;;;;;15.13;7.10;;;2.70;99.90;;;;;;5093828;28;20232;-67
2020/12/09 07:39:32;;;;;;;12.47;6.87;;;2.70;99.90;;;;;;5093974;28;20230;-63
2020/12/09 07:42:00;;;;;;;10.03;6.17;;;2.70;99.90;;;;;;5093937;28;20221;-66
2020/12/09 07:44:27;;;;;;;11.60;5.87;;;2.80;99.90;;;;;;5093302;28;20769;-64
2020/12/09 07:46:56;;;;;;;11.77;6.33;;;2.80;99.90;;;;;;5094066;28;20251;-67
2020/12/09 07:49:23;;;;;;;12.43;6.10;;;2.80;99.90;;;;;;5093343;28;20608;-64
2020/12/09 07:51:51;;;;;;;9.43;6.07;;;2.80;99.90;;;;;;5092995;28;20218;-66
2020/12/09 07:54:19;;;;;;;12.40;6.60;;;2.80;99.90;;;;;;5093938;28;20212;-65
2020/12/09 07:56:46;;;;;;;11.37;6.53;;;2.70;99.90;;;;;;5093596;28;20650;-66
2020/12/09 07:59:13;;;;;;;9.30;5.77;;;2.80;99.90;;;;;;5093705;28;20226;-65
2020/12/09 08:01:40;;;;;;;12.50;6.43;;;2.90;99.90;;;;;;5093876;28;20186;-66
2020/12/09 08:04:09;;;;;;;10.63;6.20;;;2.80;99.90;;;;;;5092923;28;20226;-65
2020/12/09 08:06:36;;;;;;;10.50;6.10;;;2.80;99.90;;;;;;5093089;28;20198;-65
2020/12/09 08:09:13;;;;;;;11.33;6.07;;;2.80;99.90;;;;;;5092719;28;20642;-66
2020/12/09 08:11:43;;;;;;;9.27;5.53;;;2.80;99.90;;;;;;5093430;28;20186;-64
2020/12/09 08:14:11;;;;;;;13.07;5.90;;;2.80;99.90;;;;;;5092754;28;20197;-66
2020/12/09 08:16:39;;;;;;;9.23;5.80;;;2.80;99.90;;;;;;5093257;28;20221;-65
2020/12/09 08:19:07;;;;;;;11.00;5.80;;;2.80;99.90;;;;;;5092643;28;20255;-65
2020/12/09 08:21:34;;;;;;;9.23;5.70;;;2.80;99.90;;;;;;5092934;28;20222;-65
2020/12/09 08:24:11;;;;;;;11.40;6.30;;;2.80;99.90;;;;;;5092834;28;20269;-64
2020/12/09 08:26:38;;;;;;;10.67;6.60;;;2.80;99.90;;;;;;5092968;28;20186;-66
2020/12/09 08:29:05;;;;;;;10.13;6.03;;;2.90;99.90;;;;;;5092800;28;20229;-65
2020/12/09 08:31:33;;;;;;;12.27;6.57;;;2.80;99.90;;;;;;5092950;28;20182;-66
2020/12/09 08:34:00;;;;;;;10.50;6.00;;;2.80;99.90;;;;;;5092699;28;20198;-69
2020/12/09 08:36:27;;;;;;;11.13;5.97;;;2.80;99.90;;;;;;5091839;28;20209;-66
2020/12/09 08:38:59;;;;;;;14.83;6.93;;;2.80;99.90;;;;;;5091826;28;20250;-67
2020/12/09 08:41:27;;;;;;;11.00;6.07;;;2.90;99.90;;;;;;5092345;28;20618;-66
2020/12/09 08:43:55;;;;;;;10.97;6.23;;;2.90;99.90;;;;;;5092735;28;20263;-66
2020/12/09 08:46:23;;;;;;;12.53;6.47;;;2.90;99.90;;;;;;5091163;28;20286;-65
2020/12/09 08:48:52;;;;;;;11.57;6.07;;;2.90;99.90;;;;;;5092340;28;20227;-63
2020/12/09 08:51:23;;;;;;;12.40;5.80;;;2.90;99.90;;;;;;5087673;28;20634;-66
2020/12/09 08:53:50;;;;;;;9.93;6.10;;;2.90;99.90;;;;;;5092614;28;20288;-65
2020/12/09 08:56:16;;;;;;;12.27;6.10;;;3.00;99.90;;;;;;5092086;28;20251;-66
2020/12/09 08:58:43;;;;;;;12.33;6.30;;;3.00;99.90;;;;;;5091439;28;20222;-66
2020/12/09 09:01:09;;;;;;;11.30;6.63;;;3.00;99.90;;;;;;5092450;28;20586;-65
2020/12/09 09:03:39;;;;;;;10.13;6.30;;;3.00;99.90;;;;;;5092079;28;20249;-67
2020/12/09 09:06:07;;;;;;;11.83;6.30;;;3.00;99.90;;;;;;5091875;28;20214;-62
2020/12/09 09:08:33;;;;;;;12.20;6.50;;;3.00;99.90;;;;;;5092058;28;20240;-63
2020/12/09 09:10:59;;;;;;;9.73;5.70;;;3.00;99.90;;;;;;5091945;28;20599;-64
2020/12/09 09:13:26;;;;;;;12.03;6.40;;;3.00;99.90;;;;;;5091178;28;20288;-67
2020/12/09 09:15:52;;;;;;;12.20;6.60;;;3.00;99.90;;;;;;5098379;28;20266;-69
2020/12/09 09:18:19;;;;;;;10.30;6.23;;;3.00;99.90;;;;;;5098969;28;20263;-62
2020/12/09 09:20:45;;;;;;;12.13;6.73;;;3.00;99.90;;;;;;5090358;28;20635;-65
2020/12/09 09:23:13;;;;;;;12.67;6.77;;;3.00;99.90;;;;;;5090790;28;20221;-69
2020/12/09 09:25:39;;;;;;;10.37;5.93;;;3.00;99.90;;;;;;5086071;28;20230;-66
2020/12/09 09:28:06;;;;;;;10.73;6.17;;;3.00;99.90;;;;;;5086341;28;20245;-68
2020/12/09 09:30:32;;;;;;;9.73;5.90;;;3.00;99.90;;;;;;5092929;28;20184;-66
2020/12/09 09:32:58;;;;;;;12.83;6.57;;;3.10;99.90;;;;;;5095670;28;20239;-65
2020/12/09 09:35:25;;;;;;;10.23;6.27;;;3.10;99.90;;;;;;5095661;28;20267;-65
2020/12/09 09:37:51;;;;;;;10.27;6.17;;;3.10;99.90;;;;;;5093309;28;20232;-66
2020/12/09 09:40:19;;;;;;;11.37;6.13;;;3.10;99.90;;;;;;5095574;28;20218;-62
2020/12/09 09:42:45;;;;;;;10.30;6.37;;;3.10;99.90;;;;;;5095955;28;20218;-67
2020/12/09 09:45:11;;;;;;;11.53;6.57;;;3.10;99.90;;;;;;5095845;28;20252;-64
2020/12/09 09:47:38;;;;;;;9.90;6.47;;;3.10;99.90;;;;;;5094419;28;20201;-65
2020/12/09 09:50:07;;;;;;;11.07;6.47;;;3.10;99.90;;;;;;5089366;28;20581;-64
2020/12/09 09:52:35;;;;;;;12.93;6.53;;;3.10;99.90;;;;;;5087602;28;20213;-67
2020/12/09 09:55:01;;;;;;;11.50;6.67;;;3.10;99.90;;;;;;5084970;28;20190;-64
2020/12/09 09:57:29;;;;;;;11.80;6.83;;;3.20;99.90;;;;;;5095178;28;20670;-65
2020/12/09 09:59:56;;;;;;;11.13;6.57;;;3.20;99.90;;;;;;5095600;28;20212;-66
2020/12/09 10:02:22;;;;;;;9.63;5.70;;;3.20;99.90;;;;;;5093204;28;20187;-63
2020/12/09 10:04:49;;;;;;;10.07;5.90;;;3.20;99.90;;;;;;5094592;28;20334;-65
2020/12/09 10:07:15;;;;;;;13.87;6.63;;;3.20;99.90;;;;;;5095243;28;20293;-66
2020/12/09 10:09:42;;;;;;;13.43;6.70;;;3.20;99.90;;;;;;5094417;28;20639;-65
2020/12/09 10:12:08;;;;;;;11.23;6.97;;;3.20;99.90;;;;;;5095086;28;20573;-66
2020/12/09 10:14:35;;;;;;;12.33;6.83;;;3.30;99.90;;;;;;5094612;28;20191;-67
2020/12/09 10:17:02;;;;;;;11.73;6.87;;;3.20;99.90;;;;;;5094735;28;20244;-65
2020/12/09 10:19:29;;;;;;;13.87;6.10;;;3.20;99.90;;;;;;5095218;28;20198;-64
2020/12/09 10:22:00;;;;;;;11.03;6.37;;;3.20;99.90;;;;;;5095324;28;20182;-66
2020/12/09 10:24:26;;;;;;;13.73;7.10;;;3.30;99.90;;;;;;5095339;28;20545;-65
2020/12/09 10:26:53;;;;;;;10.47;6.40;;;3.20;99.90;;;;;;5094828;28;20194;-65
2020/12/09 10:29:19;;;;;;;12.20;6.40;;;3.20;99.90;;;;;;5094748;28;20195;-64
2020/12/09 10:31:48;;;;;;;12.90;7.33;;;3.20;99.90;;;;;;5095132;28;20228;-65
2020/12/09 10:34:16;;;;;;;12.97;6.50;;;3.30;99.90;;;;;;5095226;28;20198;-65
2020/12/09 10:36:48;;;;;;;12.50;6.47;;;3.30;99.90;;;;;;5094570;28;20190;-65
2020/12/09 10:39:15;;;;;;;13.47;6.70;;;3.30;99.90;;;;;;5094994;28;20305;-66
2020/12/09 10:41:42;;;;;;;10.13;6.07;;;3.30;99.90;;;;;;5094317;28;20222;-67
2020/12/09 10:44:09;;;;;;;13.43;6.70;;;3.30;99.90;;;;;;5094963;28;20226;-66
2020/12/09 10:46:37;;;;;;;10.40;6.30;;;3.30;99.90;;;;;;5094125;28;20307;-64
2020/12/09 10:49:06;;;;;;;13.00;6.53;;;3.30;99.90;;;;;;5093328;28;20194;-64
2020/12/09 10:51:33;;;;;;;12.33;6.83;;;3.30;99.90;;;;;;5092337;28;20186;-67
2020/12/09 10:54:00;;;;;;;12.80;6.53;;;3.30;99.90;;;;;;5094513;28;20229;-66
2020/12/09 10:56:27;;;;;;;10.30;6.07;;;3.30;99.90;;;;;;5094473;28;20237;-71
2020/12/09 10:58:54;;;;;;;10.60;5.53;;;3.30;99.90;;;;;;5094670;28;20238;-65
2020/12/09 11:01:21;;;;;;;10.37;6.40;;;3.30;99.90;;;;;;5094543;28;20261;-67
2020/12/09 11:03:48;;;;;;;10.00;6.13;;;3.30;99.90;;;;;;5094719;28;20222;-68
2020/12/09 11:06:15;;;;;;;13.17;6.57;;;3.30;99.90;;;;;;5094520;28;20245;-65
2020/12/09 11:08:42;;;;;;;11.57;6.53;;;3.30;99.90;;;;;;5093961;28;20226;-64
2020/12/09 11:11:08;;;;;;;11.87;6.47;;;3.30;99.90;;;;;;5094329;28;20263;-64
2020/12/09 11:13:35;;;;;;;10.77;6.53;;;3.30;99.90;;;;;;5094364;28;20236;-67
2020/12/09 11:16:02;;;;;;;12.20;6.47;;;3.30;99.90;;;;;;5094477;28;20202;-69
2020/12/09 11:18:28;;;;;;;10.00;5.83;;;3.30;99.90;;;;;;5094230;28;20715;-66
2020/12/09 11:20:55;;;;;;;11.23;6.00;;;3.30;99.90;;;;;;5095127;28;20228;-65
2020/12/09 11:23:22;;;;;;;9.30;5.37;;;3.30;99.90;;;;;;5091243;28;20189;-66
2020/12/09 11:25:48;;;;;;;10.17;6.13;;;3.20;99.90;;;;;;5093671;28;20246;-67
2020/12/09 11:28:15;;;;;;;11.63;6.00;;;3.20;99.90;;;;;;5093362;28;20256;-67
2020/12/09 11:30:41;;;;;;;10.90;6.17;;;3.20;99.90;;;;;;5094311;28;20545;-64
2020/12/09 11:33:08;;;;;;;9.33;6.13;;;3.20;99.90;;;;;;5092244;28;20217;-68
2020/12/09 11:35:34;;;;;;;12.80;6.40;;;3.20;99.90;;;;;;5093517;28;20236;-66
2020/12/09 11:38:01;;;;;;;10.53;6.73;;;3.20;99.90;;;;;;5093308;28;20317;-64
2020/12/09 11:40:28;;;;;;;12.27;6.57;;;3.20;99.90;;;;;;5093762;28;20623;-66
2020/12/09 11:42:55;;;;;;;9.93;6.70;;;3.20;99.90;;;;;;5093541;28;20239;-64
2020/12/09 11:45:21;;;;;;;11.43;6.60;;;3.20;99.90;;;;;;5093237;28;20292;-66
2020/12/09 11:47:48;;;;;;;10.80;6.57;;;3.20;99.90;;;;;;5093528;28;20222;-65
2020/12/09 11:50:14;;;;;;;9.97;6.13;;;3.20;99.90;;;;;;5078700;28;20222;-66
2020/12/09 11:52:41;;;;;;;9.33;6.07;;;3.20;99.90;;;;;;5090782;28;20225;-64
2020/12/09 11:55:07;;;;;;;11.93;6.73;;;3.20;99.90;;;;;;5092815;28;20194;-65
2020/12/09 11:57:34;;;;;;;10.53;6.00;;;3.20;99.90;;;;;;5092514;28;20202;-68
2020/12/09 12:00:01;;;;;;;11.77;6.47;;;3.20;99.90;;;;;;5074673;28;20553;-65
2020/12/09 12:02:27;;;;;;;12.90;6.17;;;3.20;99.90;;;;;;5091939;28;20596;-65
2020/12/09 12:04:56;;;;;;;10.43;6.50;;;3.10;99.90;;;;;;5092576;28;20256;-63
2020/12/09 12:07:22;;;;;;;10.30;5.93;;;3.10;99.90;;;;;;5092751;28;20650;-66
2020/12/09 12:09:48;;;;;;;10.87;5.80;;;3.20;99.90;;;;;;5093079;28;20691;-65
2020/12/09 12:12:15;;;;;;;12.97;6.00;;;3.20;99.90;;;;;;5093010;28;20183;-64
2020/12/09 12:14:43;;;;;;;9.97;6.00;;;3.20;99.90;;;;;;5093197;28;20225;-67
2020/12/09 12:17:10;;;;;;;10.27;6.00;;;3.20;99.90;;;;;;5093112;28;20194;-67
2020/12/09 12:19:36;;;;;;;10.77;5.97;;;3.20;99.90;;;;;;5092405;28;20244;-68
2020/12/09 12:22:03;;;;;;;13.23;6.80;;;3.20;99.90;;;;;;5092801;28;20515;-65
2020/12/09 12:24:29;;;;;;;14.63;6.23;;;3.20;99.90;;;;;;5093317;28;20230;-66
2020/12/09 12:26:56;;;;;;;11.87;5.70;;;3.20;99.90;;;;;;5092499;28;20225;-65
2020/12/09 12:29:22;;;;;;;8.53;5.80;;;3.30;99.90;;;;;;5092623;28;20232;-65
2020/12/09 12:31:50;;;;;;;11.23;6.43;;;3.20;99.90;;;;;;5092548;28;20218;-65
2020/12/09 12:34:16;;;;;;;9.77;6.10;;;3.20;99.90;;;;;;5093036;28;20217;-67
2020/12/09 12:36:42;;;;;;;10.63;6.70;;;3.10;99.90;;;;;;5092648;28;20474;-64
2020/12/09 12:39:09;;;;;;;11.40;6.60;;;3.10;99.90;;;;;;5092749;28;20717;-65
2020/12/09 12:41:36;;;;;;;13.60;6.67;;;3.10;99.90;;;;;;5092812;28;20194;-67
2020/12/09 12:44:03;;;;;;;11.37;6.63;;;3.10;99.90;;;;;;5092707;28;20233;-65
2020/12/09 12:46:29;;;;;;;13.37;6.90;;;3.10;99.90;;;;;;5092829;28;20214;-65